createdAt,value
2023-01-20T00:01:12.116Z,9.50
2023-01-20T00:03:40.658Z,10.10
2023-01-20T00:06:08.840Z,11.35
2023-01-20T00:08:36.683Z,11.82
2023-01-20T00:11:05.591Z,10.75
2023-01-20T00:13:33.520Z,10.85
2023-01-20T00:16:03.088Z,10.85
2023-01-20T00:18:30.868Z,9.98
2023-01-20T00:21:02.381Z,10.93
2023-01-20T00:23:30.037Z,10.55
2023-01-20T00:25:57.628Z,10.85
2023-01-20T00:28:25.235Z,10.80
2023-01-20T00:30:52.869Z,10.25
2023-01-20T00:33:20.447Z,10.13
2023-01-20T00:35:48.085Z,10.18
2023-01-20T00:38:15.807Z,10.82
2023-01-20T00:40:43.495Z,10.63
2023-01-20T00:43:13.182Z,11.55
2023-01-20T00:45:41.825Z,11.30
2023-01-20T00:48:09.405Z,10.75
2023-01-20T00:50:37.005Z,10.68
2023-01-20T00:53:04.801Z,8.98
2023-01-20T00:55:32.358Z,9.40
2023-01-20T00:57:59.951Z,9.40
2023-01-20T01:00:27.679Z,8.82
2023-01-20T01:02:55.313Z,8.75
2023-01-20T01:05:23.229Z,8.30
2023-01-20T01:07:50.833Z,7.72
2023-01-20T01:10:18.539Z,6.82
2023-01-20T01:12:46.170Z,6.53
2023-01-20T01:15:14.281Z,7.45
2023-01-20T01:17:44.179Z,7.07
2023-01-20T01:20:13.613Z,7.18
2023-01-20T01:22:41.357Z,6.50
2023-01-20T01:25:09.044Z,6.28
2023-01-20T01:27:36.879Z,7.10
2023-01-20T01:30:04.673Z,6.82
2023-01-20T01:32:32.417Z,7.20
2023-01-20T01:35:00.099Z,6.72
2023-01-20T01:37:28.548Z,6.13
2023-01-20T01:39:56.148Z,6.00
2023-01-20T01:42:25.359Z,6.32
2023-01-20T01:45:11.889Z,6.30
2023-01-20T01:47:44.713Z,6.05
2023-01-20T01:50:14.509Z,5.50
2023-01-20T01:52:43.569Z,6.25
2023-01-20T01:55:12.078Z,5.82
2023-01-20T01:57:39.971Z,5.50
2023-01-20T02:00:08.134Z,5.28
2023-01-20T02:02:43.548Z,5.15
2023-01-20T02:05:12.543Z,4.78
2023-01-20T02:07:45.182Z,4.55
2023-01-20T02:10:13.266Z,5.25
2023-01-20T02:12:42.115Z,4.65
2023-01-20T02:15:09.941Z,4.30
2023-01-20T02:17:54.179Z,3.95
2023-01-20T02:20:24.895Z,3.40
2023-01-20T02:23:04.879Z,3.30
2023-01-20T02:25:44.996Z,3.28
2023-01-20T02:28:30.974Z,3.50
2023-01-20T02:31:02.517Z,3.08
2023-01-20T02:33:39.795Z,2.85
2023-01-20T02:36:09.584Z,3.05
2023-01-20T02:38:39.939Z,3.30
2023-01-20T02:41:13.457Z,3.03
2023-01-20T02:43:44.164Z,2.70
2023-01-20T02:46:33.247Z,3.17
2023-01-20T02:49:00.824Z,3.05
2023-01-20T02:51:33.099Z,2.83
2023-01-20T02:54:02.974Z,2.90
2023-01-20T02:56:31.226Z,3.25
2023-01-20T02:59:28.106Z,3.08
2023-01-20T03:02:02.452Z,2.58
2023-01-20T03:04:32.057Z,2.80
2023-01-20T03:07:00.762Z,2.83
2023-01-20T03:09:31.163Z,3.40
2023-01-20T03:12:01.807Z,4.20
2023-01-20T03:14:29.417Z,3.63
2023-01-20T03:16:57.152Z,3.22
2023-01-20T03:19:25.045Z,3.38
2023-01-20T03:21:53.001Z,3.13
2023-01-20T03:24:21.557Z,3.72
2023-01-20T03:26:49.136Z,4.70
2023-01-20T03:29:18.379Z,4.55
2023-01-20T03:31:51.710Z,3.88
2023-01-20T03:34:22.160Z,3.35
2023-01-20T03:36:50.400Z,3.42
2023-01-20T03:39:18.414Z,3.42
2023-01-20T03:41:58.353Z,3.00
2023-01-20T03:44:29.091Z,2.90
2023-01-20T03:46:56.680Z,3.22
2023-01-20T03:49:28.606Z,2.97
2023-01-20T03:52:16.529Z,3.75
2023-01-20T03:54:58.090Z,3.30
2023-01-20T03:57:32.669Z,3.33
2023-01-20T04:00:00.851Z,3.60
2023-01-20T04:02:29.008Z,3.72
2023-01-20T04:04:57.778Z,3.50
2023-01-20T04:07:26.378Z,3.30
2023-01-20T04:09:59.340Z,3.42
2023-01-20T04:14:54.613Z,4.95
2023-01-20T04:17:26.611Z,5.50
2023-01-20T04:19:54.459Z,5.18
2023-01-20T04:22:32.521Z,6.68
2023-01-20T04:25:14.614Z,6.25
2023-01-20T04:27:42.312Z,5.00
2023-01-20T04:30:10.505Z,5.32
2023-01-20T04:32:38.174Z,4.97
2023-01-20T04:35:05.916Z,6.22
2023-01-20T04:37:33.654Z,5.75
2023-01-20T04:40:01.253Z,5.90
2023-01-20T04:42:29.022Z,6.18
2023-01-20T04:44:56.565Z,5.85
2023-01-20T04:47:24.191Z,6.10
2023-01-20T04:49:51.802Z,5.55
2023-01-20T04:52:19.460Z,5.70
2023-01-20T04:54:47.082Z,6.20
2023-01-20T04:57:14.768Z,6.28
2023-01-20T04:59:42.896Z,6.40
2023-01-20T05:02:10.504Z,6.53
2023-01-20T05:04:38.278Z,6.55
2023-01-20T05:07:06.017Z,6.68
2023-01-20T05:09:33.761Z,6.53
2023-01-20T05:12:01.358Z,6.50
2023-01-20T05:14:28.936Z,6.72
2023-01-20T05:16:56.628Z,6.13
2023-01-20T05:19:24.209Z,6.25
